Time;durP1;ratioP1;P1;durP2;ratioP2;P2;SDS_P1;SDS_P2;PMS_P1;PMS_P2;Temp;Humidity;BMP_temperature;BMP_pressure;BME280_temperature;BME280_humidity;BME280_pressure;Samples;Min_cycle;Max_cycle;Signal;HPM_P1;HPM_P2
2021/05/02 12:27:58;;;;;;;;;;;30.20;69.40;;;;;;5809963;22;819884;-75
2021/05/02 12:30:24;;;;;;;9.65;2.78;;;29.70;61.70;;;;;;6274763;22;20349;-75
2021/05/02 12:32:51;;;;;;;10.88;2.55;;;27.20;66.80;;;;;;6306010;22;19999;-76
2021/05/02 12:35:17;;;;;;;11.02;2.13;;;25.80;71.00;;;;;;6278522;22;20038;-76
2021/05/02 12:37:42;;;;;;;23.47;3.53;;;24.20;76.90;;;;;;6279060;22;20349;-77
2021/05/02 12:40:09;;;;;;;15.80;2.83;;;23.20;82.20;;;;;;6277732;22;20003;-76
2021/05/02 12:42:37;;;;;;;16.83;2.60;;;23.20;79.50;;;;;;6278176;22;19995;-76
2021/05/02 12:45:06;;;;;;;14.68;2.78;;;24.50;82.80;;;;;;6278404;22;20003;-76
2021/05/02 12:47:42;;;;;;;13.65;2.83;;;26.70;71.60;;;;;;6278439;22;20030;-77
2021/05/02 12:50:10;;;;;;;13.32;3.35;;;26.20;69.80;;;;;;6305877;22;20030;-77
2021/05/02 12:52:44;;;;;;;12.00;2.70;;;26.80;69.10;;;;;;6269555;22;19999;-81
2021/05/02 12:55:19;;;;;;;12.25;3.05;;;27.30;67.60;;;;;;6295989;22;20396;-79
2021/05/02 12:57:50;;;;;;;13.32;2.72;;;28.30;65.00;;;;;;6276713;22;20306;-75
2021/05/02 13:00:19;;;;;;;19.77;3.13;;;29.00;58.80;;;;;;6305229;22;20010;-77
2021/05/02 13:02:46;;;;;;;19.92;4.53;;;29.60;59.00;;;;;;6305104;22;20444;-80
2021/05/02 13:05:16;;;;;;;12.68;2.65;;;27.10;60.00;;;;;;6304274;22;20007;-77
2021/05/02 13:07:46;;;;;;;15.48;3.47;;;26.20;61.80;;;;;;6303724;22;20070;-77
2021/05/02 13:10:21;;;;;;;15.20;4.20;;;25.40;65.50;;;;;;6276616;22;20004;-77
2021/05/02 13:12:56;;;;;;;22.42;3.33;;;25.20;67.10;;;;;;6246232;22;20834;-82
2021/05/02 13:15:24;;;;;;;18.52;3.33;;;25.00;68.50;;;;;;6300998;22;20015;-83
2021/05/02 13:18:07;;;;;;;14.75;3.25;;;24.30;70.50;;;;;;6306026;22;20364;-83
2021/05/02 13:20:52;;;;;;;20.50;3.50;;;24.00;73.00;;;;;;6306863;22;20085;-93
2021/05/02 13:23:28;;;;;;;13.48;3.05;;;23.10;72.40;;;;;;6305166;22;20003;-83
2021/05/02 13:26:23;;;;;;;15.63;4.00;;;22.50;73.80;;;;;;6267721;22;20007;-86
2021/05/02 13:29:07;;;;;;;15.85;3.40;;;22.00;77.10;;;;;;6273523;22;20056;-90
2021/05/02 13:31:40;;;;;;;16.00;3.28;;;21.80;77.70;;;;;;6306552;22;19996;-85
2021/05/02 13:34:06;;;;;;;19.58;4.28;;;21.50;78.60;;;;;;6268161;22;20012;-86
2021/05/02 13:36:33;;;;;;;31.13;4.37;;;21.40;81.70;;;;;;6274573;22;20003;-78
2021/05/02 13:38:58;;;;;;;17.45;3.85;;;21.40;79.90;;;;;;6301791;22;20537;-85
2021/05/02 13:41:24;;;;;;;31.48;3.55;;;20.90;81.20;;;;;;6301623;22;20010;-78
2021/05/02 13:44:05;;;;;;;17.10;2.78;;;20.30;83.20;;;;;;6304623;22;20052;-84
2021/05/02 13:46:31;;;;;;;20.58;3.83;;;20.00;81.90;;;;;;6305221;22;20050;-89
2021/05/02 13:48:57;;;;;;;28.95;4.93;;;19.90;82.70;;;;;;6305268;22;20452;-83
2021/05/02 13:51:23;;;;;;;16.05;2.75;;;19.90;83.90;;;;;;6305241;22;19999;-85
2021/05/02 13:53:52;;;;;;;17.75;3.25;;;19.90;83.10;;;;;;6305134;22;20010;-86
2021/05/02 13:56:19;;;;;;;16.90;3.70;;;19.90;84.70;;;;;;6305392;22;19995;-81
2021/05/02 13:58:45;;;;;;;19.17;3.08;;;19.70;85.00;;;;;;6260716;22;20004;-83
2021/05/02 14:01:15;;;;;;;17.23;3.33;;;19.50;85.50;;;;;;6242631;22;19996;-87
2021/05/02 14:03:41;;;;;;;13.35;2.95;;;19.40;88.30;;;;;;6273022;22;20007;-88
2021/05/02 14:06:07;;;;;;;15.40;2.55;;;19.30;85.60;;;;;;6274174;22;20023;-85
2021/05/02 14:08:33;;;;;;;16.40;3.63;;;19.00;88.50;;;;;;6279019;22;20027;-85
2021/05/02 14:11:00;;;;;;;14.93;3.13;;;18.90;89.50;;;;;;6273731;22;20050;-82
2021/05/02 14:13:26;;;;;;;15.45;2.65;;;18.90;90.90;;;;;;6270611;22;20014;-87
2021/05/02 14:15:51;;;;;;;15.60;4.75;;;18.90;89.30;;;;;;6275434;22;20000;-89
2021/05/02 14:18:17;;;;;;;13.00;2.97;;;18.90;90.80;;;;;;6273135;22;20326;-84
2021/05/02 14:20:44;;;;;;;15.05;2.75;;;18.90;91.40;;;;;;6278595;22;20004;-84
2021/05/02 14:23:10;;;;;;;22.58;3.63;;;18.90;91.80;;;;;;6274859;22;20058;-87
2021/05/02 14:25:38;;;;;;;14.15;3.17;;;19.10;90.60;;;;;;6273724;22;20014;-87
2021/05/02 14:28:04;;;;;;;17.55;3.65;;;19.50;89.40;;;;;;6273283;22;20010;-83
2021/05/02 14:30:29;;;;;;;19.42;4.32;;;19.70;90.00;;;;;;6274379;22;20090;-83
2021/05/02 14:32:55;;;;;;;20.40;3.45;;;19.60;90.10;;;;;;6273494;22;20008;-89
2021/05/02 14:35:21;;;;;;;22.48;4.10;;;20.00;90.80;;;;;;6273921;22;20027;-88
2021/05/02 14:37:47;;;;;;;14.38;3.35;;;20.60;88.60;;;;;;6273107;22;20446;-79
2021/05/02 14:40:15;;;;;;;14.27;3.20;;;20.60;85.60;;;;;;6269448;22;20007;-78
2021/05/02 14:42:41;;;;;;;19.42;3.80;;;20.80;88.80;;;;;;6272077;22;20027;-80
2021/05/02 14:45:08;;;;;;;15.80;3.67;;;20.70;87.00;;;;;;6269323;22;20004;-82
2021/05/02 14:47:34;;;;;;;16.02;3.15;;;20.70;86.90;;;;;;6272622;22;19987;-80
2021/05/02 14:50:00;;;;;;;15.05;2.95;;;20.50;89.50;;;;;;6273187;22;20003;-78
2021/05/02 14:52:26;;;;;;;16.45;3.35;;;20.20;87.00;;;;;;6270186;22;20011;-82
2021/05/02 14:54:51;;;;;;;19.77;3.40;;;19.80;89.30;;;;;;6272514;22;20057;-82
2021/05/02 14:57:17;;;;;;;14.10;3.22;;;19.80;91.40;;;;;;6246406;22;20003;-80
2021/05/02 14:59:43;;;;;;;13.50;2.92;;;19.80;90.40;;;;;;6272917;22;20002;-79
2021/05/02 15:02:08;;;;;;;15.23;2.83;;;20.30;91.40;;;;;;6273786;22;20026;-79
2021/05/02 15:04:35;;;;;;;12.95;2.80;;;20.60;88.40;;;;;;6249112;22;20036;-89
2021/05/02 15:07:00;;;;;;;15.65;3.30;;;21.10;82.80;;;;;;6275881;22;20007;-89
2021/05/02 15:09:26;;;;;;;12.75;2.30;;;21.40;83.70;;;;;;6273234;22;20044;-88
2021/05/02 15:11:52;;;;;;;24.27;4.53;;;22.60;80.80;;;;;;6274163;22;20026;-88
2021/05/02 15:14:19;;;;;;;11.00;3.50;;;24.20;73.70;;;;;;6271356;22;20422;-91
2021/05/02 15:16:45;;;;;;;15.20;3.50;;;23.80;70.00;;;;;;6274469;22;20007;-88
2021/05/02 15:19:11;;;;;;;20.92;3.83;;;23.70;73.40;;;;;;6248418;22;20422;-87
2021/05/02 15:21:37;;;;;;;18.88;2.70;;;24.20;66.60;;;;;;6275209;22;20014;-89
2021/05/02 15:24:04;;;;;;;15.95;3.30;;;23.70;66.30;;;;;;6276025;22;19996;-89
2021/05/02 15:26:29;;;;;;;14.25;2.88;;;23.20;69.30;;;;;;6248559;22;20499;-87
2021/05/02 15:28:55;;;;;;;17.40;3.17;;;23.30;70.70;;;;;;6274855;22;20034;-87
2021/05/02 15:31:21;;;;;;;10.75;3.10;;;24.10;69.10;;;;;;6273674;22;20006;-85
2021/05/02 15:33:46;;;;;;;12.80;3.08;;;25.50;64.00;;;;;;6248411;22;20019;-86
2021/05/02 15:36:12;;;;;;;13.63;3.50;;;25.50;59.00;;;;;;6236748;22;20008;-87
2021/05/02 15:38:38;;;;;;;12.68;2.50;;;25.00;62.50;;;;;;6271316;22;20004;-84
2021/05/02 15:41:04;;;;;;;16.88;3.30;;;25.70;62.70;;;;;;6273572;22;20018;-87
2021/05/02 15:43:30;;;;;;;13.73;3.15;;;25.30;59.70;;;;;;6274183;22;20011;-87
2021/05/02 15:45:56;;;;;;;9.10;2.47;;;24.20;63.20;;;;;;6274624;22;20000;-88
2021/05/02 15:48:22;;;;;;;18.98;3.60;;;23.10;65.70;;;;;;6248321;22;20346;-87
2021/05/02 15:50:47;;;;;;;20.95;4.00;;;22.50;67.90;;;;;;6247843;22;19999;-87
2021/05/02 15:53:13;;;;;;;14.68;2.92;;;23.30;68.90;;;;;;6273226;22;20008;-86
2021/05/02 15:55:39;;;;;;;11.63;2.92;;;24.60;64.10;;;;;;6271989;22;20012;-86
2021/05/02 15:58:05;;;;;;;10.90;3.00;;;26.30;58.90;;;;;;6271072;22;20422;-86
2021/05/02 16:00:32;;;;;;;12.17;2.63;;;27.60;56.10;;;;;;6273018;22;20012;-84
2021/05/02 16:02:57;;;;;;;;;;;27.80;54.40;;;;;;6275297;22;20007;-85
2021/05/02 16:05:23;;;;;;;16.65;2.58;;;27.90;53.70;;;;;;6247662;22;19899;-85
2021/05/02 16:07:49;;;;;;;15.43;2.63;;;26.80;52.00;;;;;;6273277;22;20088;-86
2021/05/02 16:10:15;;;;;;;12.50;2.83;;;26.40;55.20;;;;;;6275239;22;20069;-86
2021/05/02 16:12:41;;;;;;;10.60;2.72;;;25.50;57.40;;;;;;6275686;22;20345;-87
2021/05/02 16:15:07;;;;;;;12.48;2.65;;;24.30;58.40;;;;;;6275196;22;20031;-87
2021/05/02 16:17:33;;;;;;;21.73;3.90;;;22.50;60.30;;;;;;6277130;22;19995;-89
2021/05/02 16:20:01;;;;;;;10.07;3.13;;;21.60;65.70;;;;;;6270763;22;20000;-88
2021/05/02 16:22:27;;;;;;;15.82;3.03;;;21.30;70.00;;;;;;6209609;22;20000;-89
2021/05/02 16:24:52;;;;;;;17.17;3.05;;;21.40;69.90;;;;;;6276124;22;20053;-89
2021/05/02 16:27:18;;;;;;;12.27;2.63;;;21.30;68.50;;;;;;6276624;22;20008;-89
2021/05/02 16:29:44;;;;;;;15.23;2.70;;;20.90;70.20;;;;;;6248963;22;20003;-88
2021/05/02 16:32:10;;;;;;;13.77;2.63;;;20.70;69.90;;;;;;6278558;22;20011;-89
2021/05/02 16:34:36;;;;;;;13.10;3.58;;;20.30;72.30;;;;;;6277922;22;20011;-88
2021/05/02 16:37:02;;;;;;;12.80;2.60;;;20.10;72.50;;;;;;6276669;22;20006;-87
2021/05/02 16:39:29;;;;;;;10.80;2.75;;;20.00;75.00;;;;;;6277790;22;20438;-89
2021/05/02 16:41:55;;;;;;;15.75;2.80;;;19.70;74.80;;;;;;6274155;22;20004;-85
2021/05/02 16:44:22;;;;;;;11.15;2.80;;;19.50;74.90;;;;;;6250806;22;20752;-88
2021/05/02 16:46:48;;;;;;;16.88;2.75;;;19.30;77.00;;;;;;6278873;22;20000;-85
2021/05/02 16:49:14;;;;;;;13.30;2.65;;;18.90;74.70;;;;;;6277494;22;20023;-86
2021/05/02 16:51:40;;;;;;;12.65;2.40;;;18.70;78.60;;;;;;6274689;22;20006;-88
2021/05/02 16:54:06;;;;;;;19.43;4.50;;;18.60;78.60;;;;;;6245855;22;20020;-89
2021/05/02 16:56:33;;;;;;;11.95;2.28;;;18.70;80.10;;;;;;6252722;22;20321;-90
2021/05/02 16:58:58;;;;;;;9.73;2.50;;;18.70;77.50;;;;;;6253224;22;20007;-92
2021/05/02 17:01:25;;;;;;;11.75;2.35;;;18.70;76.50;;;;;;6279981;22;20335;-92
2021/05/02 17:03:50;;;;;;;16.90;3.90;;;18.60;80.00;;;;;;6253100;22;20018;-91
2021/05/02 17:06:16;;;;;;;5.70;2.05;;;18.60;78.10;;;;;;6282197;22;20020;-94
2021/05/02 17:08:42;;;;;;;18.08;3.58;;;18.50;79.10;;;;;;6277621;22;20026;-89
2021/05/02 17:11:08;;;;;;;12.88;2.63;;;18.40;77.50;;;;;;6278854;22;20008;-91
2021/05/02 17:13:33;;;;;;;14.07;2.95;;;18.40;79.20;;;;;;6276970;22;20335;-89
2021/05/02 17:15:59;;;;;;;12.88;2.95;;;18.30;82.40;;;;;;6277591;22;20007;-91
2021/05/02 17:18:25;;;;;;;16.70;2.92;;;18.20;85.30;;;;;;6277602;22;20003;-92
2021/05/02 17:20:51;;;;;;;12.65;2.50;;;18.20;79.60;;;;;;6276896;22;20004;-86
2021/05/02 17:23:17;;;;;;;14.93;2.72;;;18.30;80.30;;;;;;6248994;22;20064;-88
2021/05/02 17:25:43;;;;;;;9.30;2.10;;;18.20;81.50;;;;;;6275221;22;20296;-87
2021/05/02 17:28:09;;;;;;;9.23;2.45;;;18.20;82.40;;;;;;6276126;22;20161;-87
2021/05/02 17:30:35;;;;;;;10.98;2.65;;;18.30;80.10;;;;;;6276003;22;20415;-88
2021/05/02 17:33:01;;;;;;;14.90;3.03;;;18.30;82.00;;;;;;6275735;22;20017;-88
2021/05/02 17:35:27;;;;;;;14.75;2.60;;;18.30;81.40;;;;;;6275709;22;19996;-87
2021/05/02 17:37:53;;;;;;;13.35;2.50;;;18.20;82.90;;;;;;6276268;22;20082;-87
2021/05/02 17:40:19;;;;;;;7.47;2.23;;;18.20;81.80;;;;;;6248376;22;20303;-87
2021/05/02 17:42:44;;;;;;;16.52;2.88;;;18.20;81.60;;;;;;6275638;22;20076;-88
2021/05/02 17:45:13;;;;;;;17.55;2.85;;;18.20;82.00;;;;;;6277089;22;20011;-88
2021/05/02 17:47:39;;;;;;;12.13;2.60;;;18.10;81.70;;;;;;6248467;22;20015;-85
2021/05/02 17:50:09;;;;;;;10.98;2.47;;;18.00;81.40;;;;;;6248383;22;20023;-88
2021/05/02 17:52:36;;;;;;;9.70;2.75;;;18.00;81.50;;;;;;6274969;22;20022;-86
2021/05/02 17:55:06;;;;;;;13.27;2.95;;;18.00;80.70;;;;;;6247238;22;20011;-89
2021/05/02 17:57:33;;;;;;;11.50;2.38;;;17.90;81.00;;;;;;6275674;22;20079;-86
2021/05/02 17:59:59;;;;;;;13.90;3.67;;;17.80;79.20;;;;;;6275550;22;20422;-89
2021/05/02 18:02:25;;;;;;;10.57;2.53;;;17.80;78.80;;;;;;6276164;22;20326;-90
2021/05/02 18:04:51;;;;;;;12.48;2.55;;;17.80;83.40;;;;;;6275886;22;19995;-92
2021/05/02 18:07:17;;;;;;;12.75;3.70;;;17.70;80.30;;;;;;6277294;22;20007;-90
2021/05/02 18:09:43;;;;;;;9.23;2.33;;;17.60;84.60;;;;;;6276414;22;20034;-90
2021/05/02 18:12:11;;;;;;;13.60;2.97;;;17.50;84.50;;;;;;6275797;22;20073;-85
2021/05/02 18:14:36;;;;;;;12.90;2.25;;;17.50;84.70;;;;;;6274693;22;20023;-86
2021/05/02 18:17:02;;;;;;;17.08;3.28;;;17.40;86.40;;;;;;6275543;22;20004;-85
2021/05/02 18:19:28;;;;;;;8.63;2.85;;;17.30;86.70;;;;;;6272925;22;20014;-81
2021/05/02 18:21:54;;;;;;;12.10;2.50;;;17.30;87.20;;;;;;6275449;22;19996;-91
2021/05/02 18:24:22;;;;;;;16.30;3.10;;;17.30;85.20;;;;;;6275300;22;20350;-81
2021/05/02 18:44:36;;;;;;;18.38;3.08;;;17.20;83.20;;;;;;6239194;22;964158;-84
2021/05/02 18:47:03;;;;;;;16.98;3.45;;;17.20;89.20;;;;;;6280882;22;20069;-80
2021/05/02 18:49:30;;;;;;;20.38;4.97;;;17.30;85.90;;;;;;6281178;22;20007;-82
2021/05/02 18:51:55;;;;;;;15.57;3.45;;;17.30;88.90;;;;;;6281299;22;20004;-84
2021/05/02 18:54:21;;;;;;;17.25;3.65;;;17.30;89.30;;;;;;6282277;22;20336;-87
2021/05/02 18:56:48;;;;;;;20.20;3.20;;;17.20;88.90;;;;;;6281179;22;20000;-86
2021/05/02 18:59:15;;;;;;;16.58;3.20;;;17.20;88.20;;;;;;6281169;22;20004;-80
2021/05/02 19:01:41;;;;;;;13.27;3.45;;;17.20;89.90;;;;;;6283506;22;20346;-83
2021/05/02 19:04:10;;;;;;;16.65;4.45;;;17.20;90.10;;;;;;6283592;22;20501;-80
2021/05/02 19:06:39;;;;;;;22.13;4.88;;;17.20;91.00;;;;;;6280317;22;20008;-83
2021/05/02 19:09:05;;;;;;;15.90;3.22;;;17.10;90.70;;;;;;6278137;22;20003;-81
2021/05/02 19:11:31;;;;;;;18.42;3.72;;;17.00;91.80;;;;;;6278206;22;20006;-82
2021/05/02 19:13:57;;;;;;;19.25;3.78;;;17.00;91.80;;;;;;6285866;22;20011;-82
2021/05/02 19:16:23;;;;;;;16.15;4.40;;;17.00;91.60;;;;;;6276165;22;20428;-82
2021/05/02 19:18:49;;;;;;;17.05;3.88;;;17.00;90.00;;;;;;6277717;22;20027;-81
2021/05/02 19:21:16;;;;;;;18.58;3.95;;;17.00;91.60;;;;;;6277942;22;20004;-80
2021/05/02 19:23:42;;;;;;;13.40;3.15;;;17.00;91.10;;;;;;6277902;22;20003;-83
2021/05/02 19:26:08;;;;;;;16.40;3.70;;;17.00;91.30;;;;;;6250511;22;20011;-82
2021/05/02 19:28:33;;;;;;;20.52;3.38;;;17.00;91.00;;;;;;6277243;22;20336;-86
2021/05/02 19:30:59;;;;;;;14.25;3.33;;;17.00;90.40;;;;;;6276712;22;20075;-85
2021/05/02 19:33:25;;;;;;;10.02;2.75;;;16.90;90.40;;;;;;6275011;22;20020;-83
2021/05/02 19:35:50;;;;;;;20.40;3.55;;;16.90;90.10;;;;;;6277018;22;20007;-82
2021/05/02 19:38:16;;;;;;;15.77;3.67;;;16.80;91.70;;;;;;6275529;22;20003;-82
2021/05/02 19:40:42;;;;;;;7.15;2.40;;;16.70;91.40;;;;;;6275981;22;20007;-82
2021/05/02 19:43:10;;;;;;;13.97;3.80;;;16.70;91.70;;;;;;6250056;22;20102;-81
2021/05/02 19:45:36;;;;;;;15.85;3.42;;;16.60;90.90;;;;;;6268553;22;20551;-80
2021/05/02 19:48:02;;;;;;;14.93;3.23;;;16.60;91.20;;;;;;6269382;22;20026;-81
2021/05/02 19:50:29;;;;;;;13.93;3.40;;;16.60;92.00;;;;;;6270989;22;19995;-80
2021/05/02 19:52:54;;;;;;;14.70;2.60;;;16.50;91.60;;;;;;6271516;22;20012;-81
2021/05/02 19:55:20;;;;;;;17.98;4.35;;;16.50;91.40;;;;;;6268861;22;20142;-82
2021/05/02 19:57:46;;;;;;;17.85;4.03;;;16.40;91.90;;;;;;6270988;22;20029;-81
2021/05/02 20:00:13;;;;;;;17.70;3.80;;;16.30;92.10;;;;;;6254273;22;20007;-84
2021/05/02 20:02:39;;;;;;;13.80;2.83;;;16.20;92.80;;;;;;6267068;22;20000;-85
2021/05/02 20:07:42;;;;;;;16.08;3.00;;;16.30;91.90;;;;;;6175411;23;20028;-82
2021/05/02 20:10:09;;;;;;;13.00;3.00;;;16.10;92.30;;;;;;6176697;23;20001;-82
2021/05/02 20:12:38;;;;;;;23.02;3.13;;;16.20;92.70;;;;;;6177923;23;20015;-82
2021/05/02 20:15:06;;;;;;;13.95;3.30;;;16.20;92.50;;;;;;6179194;23;20008;-85
2021/05/02 20:17:35;;;;;;;19.80;3.72;;;16.10;92.70;;;;;;6178631;23;20001;-83
2021/05/02 20:20:05;;;;;;;18.17;3.70;;;16.20;91.40;;;;;;6179353;23;20023;-81
2021/05/02 20:22:31;;;;;;;20.08;2.97;;;16.20;93.00;;;;;;6179596;23;20422;-84
2021/05/02 20:24:56;;;;;;;13.40;3.42;;;16.30;92.10;;;;;;6179278;23;20290;-80
2021/05/02 20:27:25;;;;;;;9.77;3.05;;;16.30;92.90;;;;;;6180328;23;19997;-81
2021/05/02 20:29:51;;;;;;;13.20;3.00;;;16.30;92.20;;;;;;6178066;23;20323;-81
2021/05/02 20:32:16;;;;;;;17.63;3.03;;;16.30;92.00;;;;;;6178251;23;20088;-81
2021/05/02 20:34:46;;;;;;;12.07;2.88;;;16.30;92.90;;;;;;6179135;23;20009;-82
2021/05/02 20:37:23;;;;;;;13.55;3.00;;;16.30;92.70;;;;;;6153257;23;20005;-81
2021/05/02 20:39:50;;;;;;;19.35;3.03;;;16.20;91.90;;;;;;6179284;23;20075;-79
2021/05/02 20:42:16;;;;;;;9.30;2.67;;;16.20;92.90;;;;;;6179464;23;20386;-80
2021/05/02 20:44:43;;;;;;;14.48;2.15;;;16.10;92.60;;;;;;6178581;23;20090;-81
2021/05/02 20:47:08;;;;;;;15.27;3.47;;;16.10;92.70;;;;;;6179922;23;20323;-81
2021/05/02 20:49:34;;;;;;;12.80;2.65;;;16.20;92.60;;;;;;6179139;23;20013;-80
2021/05/02 20:54:35;;;;;;;12.60;2.55;;;16.20;92.50;;;;;;6261382;22;20020;-80
2021/05/02 20:57:01;;;;;;;10.75;2.72;;;16.20;93.10;;;;;;6270060;22;20057;-81
2021/05/02 20:59:29;;;;;;;11.45;3.00;;;16.30;92.90;;;;;;6271821;22;19992;-80
2021/05/02 21:01:55;;;;;;;11.55;2.45;;;16.20;93.50;;;;;;6273963;22;20055;-83
2021/05/02 21:04:20;;;;;;;22.35;3.55;;;16.20;93.50;;;;;;6274379;22;19995;-80
2021/05/02 21:06:46;;;;;;;15.80;3.00;;;16.20;94.40;;;;;;6247370;22;20026;-81
2021/05/02 21:09:12;;;;;;;11.65;3.47;;;16.20;93.40;;;;;;6274072;22;20295;-80
2021/05/02 21:11:41;;;;;;;18.33;3.10;;;16.20;94.10;;;;;;6247872;22;20002;-80
2021/05/02 21:14:06;;;;;;;18.17;2.42;;;16.20;93.70;;;;;;6246885;22;20437;-79
2021/05/02 21:16:32;;;;;;;17.10;3.13;;;16.10;94.20;;;;;;6247770;22;20086;-80
2021/05/02 21:18:59;;;;;;;14.30;2.92;;;16.00;94.90;;;;;;6274480;22;19996;-80
2021/05/02 21:21:26;;;;;;;11.27;3.08;;;15.90;95.10;;;;;;6274302;22;20504;-80
2021/05/02 21:23:52;;;;;;;19.10;3.85;;;15.90;95.40;;;;;;6274178;22;20087;-81
2021/05/02 21:26:18;;;;;;;19.08;3.35;;;15.80;95.20;;;;;;6274240;22;20019;-80
2021/05/02 21:28:43;;;;;;;10.80;2.33;;;15.80;95.70;;;;;;6274508;22;19996;-79
2021/05/02 21:31:09;;;;;;;12.30;3.47;;;15.70;95.80;;;;;;6247060;22;20480;-82
2021/05/02 21:33:35;;;;;;;22.90;4.45;;;15.50;96.10;;;;;;6274395;22;20077;-79
2021/05/02 21:36:02;;;;;;;14.50;3.33;;;15.40;96.80;;;;;;6274723;22;20011;-81
2021/05/02 21:38:28;;;;;;;12.95;2.78;;;15.40;97.60;;;;;;6268388;22;20024;-79
2021/05/02 21:40:57;;;;;;;23.60;2.70;;;15.30;97.80;;;;;;6274403;22;20030;-80
2021/05/02 21:43:25;;;;;;;17.42;3.40;;;15.30;97.60;;;;;;6274541;22;19996;-80
2021/05/02 21:45:50;;;;;;;;;;;15.20;97.60;;;;;;6274913;22;20186;-81
2021/05/02 21:48:17;;;;;;;21.98;3.83;;;15.10;98.40;;;;;;6247489;22;19927;-79
2021/05/02 21:50:43;;;;;;;14.02;2.90;;;15.00;98.50;;;;;;6274247;22;20023;-79
2021/05/02 21:53:13;;;;;;;23.60;3.22;;;15.00;98.70;;;;;;6274013;22;20094;-80
2021/05/02 21:55:39;;;;;;;15.73;3.00;;;14.90;99.00;;;;;;6274466;22;20010;-79
2021/05/02 21:58:05;;;;;;;21.17;3.25;;;14.80;99.00;;;;;;6274493;22;19996;-80
2021/05/02 22:00:47;;;;;;;17.20;2.72;;;14.80;99.80;;;;;;6273821;22;20378;-78
2021/05/02 22:03:13;;;;;;;12.40;2.65;;;14.70;99.90;;;;;;6246926;22;20506;-80
2021/05/02 22:05:39;;;;;;;18.80;3.22;;;14.60;99.90;;;;;;6273847;22;20077;-79
2021/05/02 22:08:05;;;;;;;17.67;2.88;;;14.60;99.90;;;;;;6273565;22;20425;-81
2021/05/02 22:10:32;;;;;;;13.85;3.25;;;14.50;99.90;;;;;;6247166;22;20408;-79
2021/05/02 22:12:57;;;;;;;9.38;2.38;;;14.60;99.90;;;;;;6274153;22;20365;-80
2021/05/02 22:15:25;;;;;;;16.17;2.78;;;14.60;99.30;;;;;;6273446;22;20003;-80
2021/05/02 22:17:51;;;;;;;16.08;2.47;;;14.70;99.10;;;;;;6246977;22;20003;-80
2021/05/02 22:20:17;;;;;;;10.18;2.83;;;14.70;99.90;;;;;;6273878;22;20017;-80
2021/05/02 22:22:42;;;;;;;13.10;2.60;;;14.60;99.90;;;;;;6273586;22;20358;-80
2021/05/02 22:28:25;;;;;;;9.13;2.05;;;14.30;99.90;;;;;;6270683;22;20034;-79
2021/05/02 22:30:51;;;;;;;10.52;2.25;;;14.20;99.90;;;;;;6216366;23;20043;-80
2021/05/02 22:33:17;;;;;;;8.43;2.35;;;14.20;99.90;;;;;;6243231;23;20015;-79
2021/05/02 22:35:43;;;;;;;8.38;2.50;;;14.10;99.90;;;;;;6243104;23;20036;-81
2021/05/02 22:38:08;;;;;;;17.50;2.78;;;14.00;99.90;;;;;;6216318;23;20000;-79
2021/05/02 22:40:37;;;;;;;18.75;2.55;;;13.90;99.90;;;;;;6216523;23;20005;-80
2021/05/02 22:43:03;;;;;;;17.90;2.70;;;13.90;99.90;;;;;;6243327;23;19996;-79
2021/05/02 22:45:29;;;;;;;9.35;2.92;;;13.80;99.90;;;;;;6242932;23;19998;-80
2021/05/02 22:47:58;;;;;;;20.23;2.83;;;13.60;99.90;;;;;;6216705;23;20004;-80
2021/05/02 22:50:32;;;;;;;13.77;2.70;;;13.50;99.90;;;;;;6242845;23;20032;-81
2021/05/02 22:52:57;;;;;;;9.15;2.55;;;13.40;99.90;;;;;;6243159;23;20070;-81
2021/05/02 22:55:25;;;;;;;13.05;3.30;;;13.30;99.90;;;;;;6242824;23;19996;-80
2021/05/02 22:57:52;;;;;;;12.32;2.80;;;13.30;99.90;;;;;;6242299;23;20000;-80
2021/05/02 23:00:24;;;;;;;17.52;3.53;;;13.30;99.90;;;;;;6239167;23;20088;-81
2021/05/02 23:02:57;;;;;;;11.23;2.53;;;13.40;99.90;;;;;;6240898;23;20083;-81
2021/05/02 23:05:24;;;;;;;10.63;2.63;;;13.50;99.90;;;;;;6241745;23;20003;-81
2021/05/02 23:07:50;;;;;;;12.05;2.00;;;13.60;99.90;;;;;;6243515;23;19993;-81
2021/05/02 23:10:16;;;;;;;15.00;1.92;;;13.70;99.90;;;;;;6244502;22;20582;-87
2021/05/02 23:12:42;;;;;;;11.13;1.75;;;14.00;99.90;;;;;;6244604;23;20012;-85
2021/05/02 23:15:08;;;;;;;6.30;1.23;;;14.20;99.90;;;;;;6243800;23;20010;-86
2021/05/02 23:17:33;;;;;;;5.55;0.98;;;14.30;99.90;;;;;;6243908;23;20000;-83
2021/05/02 23:20:00;;;;;;;1.63;0.65;;;14.30;99.90;;;;;;6244749;23;20312;-84
2021/05/02 23:22:26;;;;;;;6.80;1.10;;;14.20;99.90;;;;;;6245916;23;20135;-83
2021/05/02 23:24:52;;;;;;;4.53;1.20;;;14.10;99.90;;;;;;6245573;23;20636;-84
2021/05/02 23:27:18;;;;;;;3.40;1.17;;;14.00;99.90;;;;;;6245794;23;19996;-85
2021/05/02 23:29:44;;;;;;;3.58;0.80;;;13.90;99.90;;;;;;6245742;23;20000;-84
2021/05/02 23:32:09;;;;;;;2.95;1.15;;;13.90;99.90;;;;;;6245311;23;20064;-84
2021/05/02 23:34:35;;;;;;;1.40;0.50;;;13.80;99.90;;;;;;6245324;23;20134;-83
2021/05/02 23:37:01;;;;;;;2.72;0.52;;;13.80;99.90;;;;;;6245112;23;20563;-83
2021/05/02 23:39:27;;;;;;;4.40;0.80;;;13.70;99.90;;;;;;6218066;23;20095;-84
2021/05/02 23:41:52;;;;;;;5.63;0.80;;;13.70;99.90;;;;;;6245287;23;20477;-83
2021/05/02 23:44:18;;;;;;;3.22;0.80;;;13.60;99.90;;;;;;6217733;23;20030;-82
2021/05/02 23:46:45;;;;;;;0.90;0.65;;;13.60;99.90;;;;;;6245163;23;19997;-83
2021/05/02 23:49:11;;;;;;;9.07;1.08;;;13.50;99.90;;;;;;6244841;23;20395;-83
2021/05/02 23:51:36;;;;;;;6.30;1.42;;;13.50;99.90;;;;;;6218371;23;20004;-84
2021/05/02 23:54:02;;;;;;;10.98;0.95;;;13.40;99.90;;;;;;6217442;23;20012;-83
2021/05/02 23:56:28;;;;;;;2.88;0.70;;;13.30;99.90;;;;;;6244615;23;20427;-82
2021/05/02 23:58:54;;;;;;;1.30;0.40;;;13.30;99.90;;;;;;6244668;23;20015;-83
